Time;durP1;ratioP1;P1;durP2;ratioP2;P2;SDS_P1;SDS_P2;PMS_P1;PMS_P2;Temp;Humidity;BMP_temperature;BMP_pressure;BME280_temperature;BME280_humidity;BME280_pressure;Samples;Min_cycle;Max_cycle;Signal;HPM_P1;HPM_P2
2023/01/03 00:00:44;;;;;;;2.70;1.70;;;7.40;99.90;;;;;;5062410;28;20233;-76
2023/01/03 00:03:17;;;;;;;2.33;1.43;;;7.40;99.90;;;;;;5063341;28;20191;-76
2023/01/03 00:05:46;;;;;;;3.00;1.60;;;7.40;99.90;;;;;;5078751;28;20195;-76
2023/01/03 00:08:14;;;;;;;2.70;1.50;;;7.40;99.90;;;;;;5065447;28;20198;-76
2023/01/03 00:10:41;;;;;;;6.43;1.60;;;7.50;99.90;;;;;;5076653;28;20191;-76
2023/01/03 00:13:07;;;;;;;2.27;1.30;;;7.50;99.90;;;;;;5056697;28;20198;-76
2023/01/03 00:15:36;;;;;;;1.87;1.20;;;7.50;99.90;;;;;;5061016;28;20194;-76
2023/01/03 00:18:02;;;;;;;2.00;1.40;;;7.60;99.90;;;;;;5055153;28;20222;-76
2023/01/03 00:20:29;;;;;;;1.70;1.30;;;7.60;99.90;;;;;;5041633;28;20587;-76
2023/01/03 00:22:58;;;;;;;3.37;1.33;;;7.60;99.90;;;;;;5064405;28;20612;-76
2023/01/03 00:25:26;;;;;;;3.67;1.50;;;7.60;99.90;;;;;;5066859;28;20206;-76
2023/01/03 00:27:52;;;;;;;2.23;1.50;;;7.50;99.90;;;;;;5058962;28;20337;-76
2023/01/03 00:30:19;;;;;;;4.93;1.43;;;7.50;99.90;;;;;;5062947;28;20197;-76
2023/01/03 00:32:45;;;;;;;1.80;1.33;;;7.50;99.90;;;;;;5072369;28;20206;-76
2023/01/03 00:35:12;;;;;;;2.80;1.37;;;7.50;99.90;;;;;;5082419;28;20194;-76
2023/01/03 00:37:38;;;;;;;5.33;1.70;;;7.50;99.90;;;;;;5050343;28;20196;-76
2023/01/03 00:40:05;;;;;;;1.77;1.40;;;7.50;99.90;;;;;;5080552;28;20229;-76
2023/01/03 00:43:27;;;;;;;2.70;1.73;;;7.60;99.90;;;;;;5077593;28;20674;-76
2023/01/03 00:45:18;;;;;;;3.00;1.60;;;7.70;99.90;;;;;;5065753;28;20183;-76
2023/01/03 00:47:44;;;;;;;2.03;1.53;;;7.80;99.90;;;;;;5062231;28;20210;-76
2023/01/03 00:50:11;;;;;;;1.60;1.40;;;7.90;99.90;;;;;;5062871;28;20897;-76
2023/01/03 00:52:38;;;;;;;2.47;1.60;;;8.00;99.90;;;;;;5052361;28;20289;-76
2023/01/03 00:55:05;;;;;;;1.83;1.50;;;7.90;99.90;;;;;;5082280;28;20198;-77
2023/01/03 00:57:31;;;;;;;2.20;1.37;;;7.90;99.90;;;;;;5062630;28;20533;-76
2023/01/03 00:59:57;;;;;;;2.13;1.57;;;7.80;99.90;;;;;;5050034;28;20225;-77
2023/01/03 01:02:24;;;;;;;2.43;1.40;;;7.70;99.90;;;;;;5056153;28;20195;-76
2023/01/03 01:04:52;;;;;;;2.27;1.40;;;7.70;99.90;;;;;;5071828;28;20643;-76
2023/01/03 01:07:19;;;;;;;3.30;1.30;;;7.60;99.90;;;;;;5067250;28;20512;-77
2023/01/03 01:09:45;;;;;;;1.80;1.30;;;7.50;99.90;;;;;;5066110;28;20658;-77
2023/01/03 01:12:11;;;;;;;2.07;1.47;;;7.40;99.90;;;;;;5072340;28;20256;-76
2023/01/03 01:14:38;;;;;;;3.97;1.47;;;7.40;99.90;;;;;;5057754;28;20203;-77
2023/01/03 01:17:08;;;;;;;3.80;2.10;;;7.40;99.90;;;;;;5065666;28;20202;-76
2023/01/03 01:19:41;;;;;;;3.87;1.97;;;7.40;99.90;;;;;;5078044;28;20219;-77
2023/01/03 01:22:08;;;;;;;2.20;1.70;;;7.50;99.90;;;;;;5058902;28;20300;-76
2023/01/03 01:24:35;;;;;;;2.77;1.63;;;7.50;99.90;;;;;;5063247;28;20375;-76
2023/01/03 01:27:02;;;;;;;3.03;1.57;;;7.50;99.90;;;;;;5076158;28;20183;-76
2023/01/03 01:29:28;;;;;;;2.00;1.40;;;7.50;99.90;;;;;;5078362;28;20191;-76
2023/01/03 01:31:55;;;;;;;3.30;1.50;;;7.50;99.90;;;;;;5064574;28;20548;-76
2023/01/03 01:34:23;;;;;;;1.80;1.33;;;7.60;99.90;;;;;;5082028;28;20194;-77
2023/01/03 01:36:49;;;;;;;2.07;1.40;;;7.70;99.90;;;;;;5065414;28;20194;-76
2023/01/03 01:39:26;;;;;;;1.97;1.27;;;7.70;99.90;;;;;;5049690;28;20540;-76
2023/01/03 01:45:00;;;;;;;1.83;1.20;;;7.70;99.90;;;;;;5064468;28;20219;-77
2023/01/03 01:47:39;;;;;;;2.97;1.33;;;7.60;99.90;;;;;;5064402;28;20182;-77
2023/01/03 01:50:27;;;;;;;2.27;1.47;;;7.60;99.90;;;;;;5064975;28;20552;-76
2023/01/03 01:53:10;;;;;;;2.10;1.30;;;7.60;99.90;;;;;;5059676;28;20203;-76
2023/01/03 01:55:42;;;;;;;3.57;1.10;;;7.60;99.90;;;;;;5082102;28;20191;-76
2023/01/03 01:58:11;;;;;;;1.50;1.07;;;7.50;99.90;;;;;;5066354;28;20191;-76
2023/01/03 02:00:41;;;;;;;1.93;1.23;;;7.50;99.90;;;;;;5080300;28;20305;-76
2023/01/03 02:03:08;;;;;;;1.50;1.10;;;7.50;99.90;;;;;;5063556;28;20194;-76
2023/01/03 02:05:40;;;;;;;1.87;1.20;;;7.60;99.90;;;;;;5055971;28;20197;-76
2023/01/03 02:08:07;;;;;;;2.40;1.20;;;7.60;99.90;;;;;;5062995;28;20183;-76
2023/01/03 02:10:43;;;;;;;2.00;1.00;;;7.70;99.90;;;;;;5067592;28;20195;-76
2023/01/03 02:13:39;;;;;;;2.20;1.40;;;7.70;99.90;;;;;;5079697;28;20885;-76
2023/01/03 02:16:36;;;;;;;2.23;1.30;;;7.70;99.90;;;;;;5057825;28;20280;-76
2023/01/03 02:19:29;;;;;;;1.83;1.40;;;7.60;99.90;;;;;;5041624;28;20198;-76
2023/01/03 02:21:58;;;;;;;2.60;1.33;;;7.60;99.90;;;;;;5080550;28;20274;-76
2023/01/03 02:25:18;;;;;;;3.00;1.60;;;7.60;99.90;;;;;;5057024;28;20287;-77
2023/01/03 02:28:14;;;;;;;2.03;1.37;;;7.60;99.90;;;;;;5085128;28;20688;-76
2023/01/03 02:30:50;;;;;;;3.13;1.40;;;7.50;99.90;;;;;;5067888;28;20243;-76
2023/01/03 02:34:04;;;;;;;2.70;1.70;;;7.50;99.90;;;;;;5053203;28;20222;-76
2023/01/03 02:36:46;;;;;;;2.60;1.80;;;7.50;99.90;;;;;;5022248;28;20825;-76
2023/01/03 02:39:27;;;;;;;2.47;1.67;;;7.60;99.90;;;;;;5091604;28;20191;-76
2023/01/03 02:45:13;;;;;;;3.07;1.90;;;7.60;99.90;;;;;;5068377;28;20228;-76
2023/01/03 02:48:05;;;;;;;4.83;1.80;;;7.50;99.90;;;;;;5063998;28;20301;-76
2023/01/03 02:50:45;;;;;;;2.87;2.00;;;7.60;99.90;;;;;;5057846;28;20548;-76
2023/01/03 02:53:19;;;;;;;2.77;1.80;;;7.50;99.90;;;;;;5073232;28;20191;-76
2023/01/03 02:55:50;;;;;;;3.33;1.80;;;7.50;99.90;;;;;;5061253;28;20190;-76
2023/01/03 02:58:24;;;;;;;4.50;2.10;;;7.50;99.90;;;;;;5051429;28;20194;-76
2023/01/03 03:00:55;;;;;;;3.40;2.00;;;7.60;99.90;;;;;;5047945;28;20211;-78
2023/01/03 03:03:31;;;;;;;3.50;2.00;;;7.50;99.90;;;;;;5051092;28;20551;-77
2023/01/03 03:06:28;;;;;;;2.60;2.00;;;7.50;99.90;;;;;;5049881;28;20205;-77
2023/01/03 03:08:54;;;;;;;3.67;1.70;;;7.50;99.90;;;;;;5079506;28;20233;-77
2023/01/03 03:14:22;;;;;;;7.20;1.90;;;7.40;99.90;;;;;;5084125;28;20199;-77
2023/01/03 03:16:52;;;;;;;3.40;2.00;;;7.40;99.90;;;;;;5073420;28;20287;-77
2023/01/03 03:25:35;;;;;;;5.87;1.93;;;7.40;99.90;;;;;;5064676;28;20195;-77
2023/01/03 03:30:59;;;;;;;4.20;2.10;;;7.40;99.90;;;;;;5065728;28;20194;-78
2023/01/03 03:33:31;;;;;;;4.67;1.97;;;7.40;99.90;;;;;;5048070;28;20190;-77
2023/01/03 03:36:08;;;;;;;3.20;1.97;;;7.30;99.90;;;;;;5067322;28;20205;-77
2023/01/03 03:38:41;;;;;;;3.63;2.23;;;7.30;99.90;;;;;;5067975;28;20773;-77
2023/01/03 03:48:03;;;;;;;3.67;2.17;;;7.30;99.90;;;;;;5056875;28;20195;-77
2023/01/03 03:51:24;;;;;;;4.23;2.37;;;7.30;99.90;;;;;;5060710;28;20190;-77
2023/01/03 03:53:53;;;;;;;4.20;2.40;;;7.30;99.90;;;;;;5009151;28;20203;-77
2023/01/03 03:56:30;;;;;;;4.70;2.37;;;7.30;99.90;;;;;;5060455;28;20657;-77
2023/01/03 03:59:04;;;;;;;3.33;1.93;;;7.30;99.90;;;;;;5061592;28;20296;-77
2023/01/03 04:01:34;;;;;;;3.87;1.90;;;7.30;99.90;;;;;;5047419;28;20644;-77
2023/01/03 04:04:08;;;;;;;3.43;2.10;;;7.30;99.90;;;;;;5076164;28;20551;-77
2023/01/03 04:06:42;;;;;;;3.33;2.10;;;7.30;99.90;;;;;;5054108;28;20244;-77
2023/01/03 04:09:09;;;;;;;3.50;1.70;;;7.30;99.90;;;;;;5065828;28;20639;-77
2023/01/03 04:11:35;;;;;;;3.77;2.00;;;7.20;99.90;;;;;;5063668;28;20532;-77
2023/01/03 04:14:02;;;;;;;3.07;2.00;;;7.20;99.90;;;;;;5077434;28;20183;-77
2023/01/03 04:16:28;;;;;;;2.60;1.73;;;7.20;99.90;;;;;;5050638;28;20222;-77
2023/01/03 04:18:54;;;;;;;3.73;2.40;;;7.20;99.90;;;;;;5066782;28;20273;-77
2023/01/03 04:21:21;;;;;;;3.37;1.90;;;7.20;99.90;;;;;;5061459;28;20699;-77
2023/01/03 04:23:47;;;;;;;4.40;2.20;;;7.20;99.90;;;;;;5061624;28;20233;-77
2023/01/03 04:26:13;;;;;;;4.60;2.17;;;7.20;99.90;;;;;;5073486;28;20493;-78
2023/01/03 04:28:41;;;;;;;3.80;2.20;;;7.20;99.90;;;;;;5036822;28;20226;-77
2023/01/03 04:31:07;;;;;;;3.63;2.03;;;7.20;99.90;;;;;;5065346;28;20191;-77
2023/01/03 04:33:34;;;;;;;3.50;1.90;;;7.10;99.90;;;;;;5068415;28;20178;-77
2023/01/03 04:36:00;;;;;;;6.37;2.07;;;7.10;99.90;;;;;;5052823;28;20273;-77
2023/01/03 04:38:26;;;;;;;3.90;2.20;;;7.00;99.90;;;;;;5048609;28;20615;-77
2023/01/03 04:40:53;;;;;;;4.33;2.10;;;7.00;99.90;;;;;;5034096;28;20222;-77
2023/01/03 04:46:05;;;;;;;3.17;1.70;;;6.90;99.90;;;;;;5062339;28;20178;-77
2023/01/03 04:48:31;;;;;;;3.00;1.93;;;6.90;99.90;;;;;;5080276;28;20214;-77
2023/01/03 04:50:59;;;;;;;4.23;2.00;;;6.90;99.90;;;;;;5083339;28;20190;-77
2023/01/03 04:53:27;;;;;;;4.73;1.87;;;6.80;99.90;;;;;;5052355;28;20190;-77
2023/01/03 04:55:55;;;;;;;2.80;2.03;;;6.80;99.90;;;;;;5064131;28;20285;-77
2023/01/03 04:58:23;;;;;;;5.83;2.40;;;6.80;99.90;;;;;;5042516;28;20187;-77
2023/01/03 05:00:50;;;;;;;3.67;2.20;;;6.90;99.90;;;;;;5078213;28;20316;-77
2023/01/03 05:03:17;;;;;;;4.47;2.17;;;6.90;99.90;;;;;;5081814;28;20179;-77
2023/01/03 05:05:43;;;;;;;4.57;2.30;;;7.00;99.90;;;;;;5046639;28;20505;-77
2023/01/03 05:08:12;;;;;;;4.67;2.50;;;7.00;99.90;;;;;;5066921;28;20228;-78
2023/01/03 05:10:40;;;;;;;4.77;3.03;;;7.00;99.90;;;;;;5067515;28;20183;-77
2023/01/03 05:13:08;;;;;;;3.60;2.20;;;7.00;99.90;;;;;;5068030;28;20183;-77
2023/01/03 05:15:38;;;;;;;7.07;2.73;;;7.00;99.90;;;;;;5064657;28;20198;-77
2023/01/03 05:18:05;;;;;;;5.73;2.07;;;7.00;99.90;;;;;;5083319;28;20193;-77
2023/01/03 05:26:18;;;;;;;5.60;2.13;;;7.00;99.90;;;;;;5051724;28;20183;-77
2023/01/03 05:28:51;;;;;;;4.07;2.30;;;7.00;99.90;;;;;;5064387;28;20189;-77
2023/01/03 05:31:17;;;;;;;8.23;2.30;;;7.00;99.90;;;;;;5053011;28;20179;-77
2023/01/03 05:33:44;;;;;;;4.23;2.40;;;7.00;99.90;;;;;;5063144;28;20270;-77
2023/01/03 05:36:11;;;;;;;5.30;2.47;;;7.00;99.90;;;;;;5083143;28;20190;-77
2023/01/03 05:38:38;;;;;;;4.83;2.30;;;7.00;99.90;;;;;;5070114;28;20281;-77
2023/01/03 05:41:05;;;;;;;4.47;2.00;;;7.10;99.90;;;;;;5065691;28;20211;-77
2023/01/03 05:43:31;;;;;;;5.93;2.00;;;7.10;99.90;;;;;;5065293;28;20624;-77
2023/01/03 05:45:58;;;;;;;5.03;2.20;;;7.10;99.90;;;;;;5056987;28;20178;-77
2023/01/03 05:48:25;;;;;;;4.07;2.53;;;7.10;99.90;;;;;;5052914;28;20671;-77
2023/01/03 05:50:54;;;;;;;4.23;2.60;;;7.10;99.90;;;;;;5069009;28;20191;-77
2023/01/03 05:53:21;;;;;;;6.20;2.50;;;7.10;99.90;;;;;;5061169;28;20559;-77
2023/01/03 05:55:47;;;;;;;3.53;2.20;;;7.10;99.90;;;;;;5086235;28;20202;-77
2023/01/03 05:58:13;;;;;;;8.13;2.50;;;7.10;99.90;;;;;;5067692;28;20190;-77
2023/01/03 06:00:40;;;;;;;4.37;2.50;;;7.10;99.90;;;;;;5057833;28;20225;-77
2023/01/03 06:03:07;;;;;;;6.03;2.67;;;7.10;99.90;;;;;;5062351;28;20221;-77
2023/01/03 06:05:33;;;;;;;5.70;2.53;;;7.20;99.90;;;;;;5053038;28;20865;-77
2023/01/03 06:08:01;;;;;;;6.73;2.60;;;7.20;99.90;;;;;;5071137;28;20210;-77
2023/01/03 06:10:29;;;;;;;5.60;2.53;;;7.20;99.90;;;;;;5051226;28;20190;-77
2023/01/03 06:12:56;;;;;;;3.43;2.33;;;7.30;99.90;;;;;;5065737;28;20191;-77
2023/01/03 06:15:22;;;;;;;6.97;2.33;;;7.30;99.90;;;;;;5048268;28;20195;-78
2023/01/03 06:18:01;;;;;;;5.57;2.63;;;7.30;99.90;;;;;;5060515;28;20213;-77
2023/01/03 06:20:28;;;;;;;3.43;2.23;;;7.30;99.90;;;;;;5052736;28;20210;-77
2023/01/03 06:22:55;;;;;;;4.80;2.60;;;7.40;99.90;;;;;;5069233;28;20194;-77
2023/01/03 06:25:22;;;;;;;6.43;2.37;;;7.50;99.90;;;;;;5085662;28;20206;-77
2023/01/03 06:27:48;;;;;;;7.87;2.60;;;7.50;99.90;;;;;;5061685;28;20601;-77
2023/01/03 06:30:15;;;;;;;4.17;2.40;;;7.60;99.90;;;;;;5066607;28;20274;-78
2023/01/03 06:32:43;;;;;;;3.87;2.40;;;7.70;99.90;;;;;;5062530;28;20190;-77
2023/01/03 06:35:10;;;;;;;4.00;2.40;;;7.80;99.90;;;;;;5069433;28;20278;-77
2023/01/03 06:37:36;;;;;;;4.87;2.50;;;7.90;99.90;;;;;;5064273;28;20194;-78
2023/01/03 06:40:04;;;;;;;3.50;2.23;;;7.90;99.90;;;;;;5084011;28;20203;-77
2023/01/03 06:42:41;;;;;;;4.27;2.17;;;8.00;99.90;;;;;;5050857;28;20193;-77
2023/01/03 06:53:35;;;;;;;6.40;2.63;;;8.30;99.90;;;;;;5054206;28;20187;-78
2023/01/03 06:56:02;;;;;;;8.73;2.60;;;8.40;99.90;;;;;;5067635;28;20219;-77
2023/01/03 06:58:29;;;;;;;5.00;2.70;;;8.40;99.90;;;;;;5065417;28;20190;-77
2023/01/03 07:01:01;;;;;;;7.27;2.73;;;8.50;99.90;;;;;;5053215;28;20245;-77
2023/01/03 07:03:28;;;;;;;4.90;2.63;;;8.50;99.90;;;;;;5064995;28;20235;-77
2023/01/03 07:05:54;;;;;;;3.93;2.77;;;8.60;99.90;;;;;;5065415;28;20180;-77
2023/01/03 07:08:20;;;;;;;7.10;3.30;;;8.70;99.90;;;;;;5047534;28;20236;-77
2023/01/03 07:10:48;;;;;;;4.30;2.70;;;8.70;99.90;;;;;;5063610;28;20198;-78
2023/01/03 07:15:59;;;;;;;5.43;2.77;;;9.00;99.90;;;;;;5065018;28;20223;-77
2023/01/03 07:18:25;;;;;;;6.10;3.10;;;9.00;99.90;;;;;;5062728;28;20263;-78
2023/01/03 07:20:52;;;;;;;6.40;3.00;;;9.10;99.90;;;;;;5048508;28;20286;-77
2023/01/03 07:23:19;;;;;;;5.67;2.97;;;9.20;99.90;;;;;;5080805;28;20634;-77
2023/01/03 07:25:45;;;;;;;5.63;2.63;;;9.30;99.90;;;;;;5063582;28;20214;-77
2023/01/03 07:28:14;;;;;;;4.03;2.60;;;9.30;99.90;;;;;;5060947;28;20187;-77
2023/01/03 07:30:44;;;;;;;6.77;2.90;;;9.40;99.90;;;;;;5035779;28;20191;-77
2023/01/03 07:33:13;;;;;;;5.97;2.97;;;9.40;99.90;;;;;;5067424;28;20191;-77
2023/01/03 07:35:40;;;;;;;5.20;3.37;;;9.40;99.90;;;;;;5078681;28;20186;-77
2023/01/03 07:38:08;;;;;;;6.03;3.23;;;9.50;99.90;;;;;;5040619;28;20257;-77
2023/01/03 07:40:34;;;;;;;6.73;2.93;;;9.60;99.90;;;;;;5055335;28;20649;-78
2023/01/03 07:45:46;;;;;;;5.87;3.10;;;10.30;99.90;;;;;;5073820;28;20529;-78
2023/01/03 07:48:13;;;;;;;7.10;3.20;;;10.10;99.90;;;;;;5060013;28;20218;-77
2023/01/03 07:50:41;;;;;;;7.27;3.00;;;10.00;99.90;;;;;;5059528;28;20182;-77
2023/01/03 07:53:15;;;;;;;5.47;2.70;;;9.90;99.90;;;;;;5062966;28;20372;-78
2023/01/03 07:55:44;;;;;;;4.97;3.20;;;9.90;99.90;;;;;;5065376;28;20202;-78
2023/01/03 07:58:12;;;;;;;5.23;2.97;;;9.90;99.90;;;;;;5075802;28;20202;-77
2023/01/03 08:00:40;;;;;;;4.97;3.00;;;9.90;99.90;;;;;;5071191;28;20651;-77
2023/01/03 08:03:08;;;;;;;9.17;3.20;;;10.00;99.90;;;;;;5060064;28;20225;-77
2023/01/03 08:05:35;;;;;;;8.90;2.83;;;10.00;99.90;;;;;;5079755;28;20282;-78
2023/01/03 08:08:04;;;;;;;4.63;2.90;;;10.00;99.90;;;;;;5061464;28;20282;-77
2023/01/03 08:13:18;;;;;;;6.40;3.47;;;10.00;99.90;;;;;;5078521;28;20191;-77
2023/01/03 08:15:51;;;;;;;5.63;2.90;;;10.00;99.90;;;;;;5055823;28;20539;-77
2023/01/03 08:18:22;;;;;;;7.07;3.37;;;10.10;99.90;;;;;;5040098;28;20271;-77
2023/01/03 08:20:48;;;;;;;5.73;2.83;;;10.10;99.90;;;;;;5063695;28;20226;-78
2023/01/03 08:23:15;;;;;;;4.53;2.70;;;10.20;99.90;;;;;;5065251;28;20285;-77
2023/01/03 08:25:41;;;;;;;5.03;2.80;;;10.20;99.90;;;;;;5058046;28;20568;-79
2023/01/03 08:28:10;;;;;;;4.80;3.20;;;10.30;99.90;;;;;;5053961;28;20183;-77
2023/01/03 08:30:48;;;;;;;5.00;2.93;;;10.30;99.90;;;;;;5061379;28;20187;-77
2023/01/03 08:33:18;;;;;;;7.17;3.03;;;10.30;99.90;;;;;;5062816;28;20198;-77
2023/01/03 08:36:00;;;;;;;4.90;2.77;;;10.40;99.90;;;;;;5064145;28;20274;-78
2023/01/03 08:38:34;;;;;;;5.10;2.90;;;10.50;99.90;;;;;;5058448;28;20248;-78
2023/01/03 08:41:03;;;;;;;8.27;2.90;;;10.50;99.90;;;;;;5075896;28;20221;-77
2023/01/03 08:43:34;;;;;;;5.93;2.93;;;10.60;99.90;;;;;;5043925;28;20171;-78
2023/01/03 08:46:06;;;;;;;5.07;3.10;;;10.60;99.90;;;;;;5063373;28;20183;-78
2023/01/03 08:48:33;;;;;;;5.00;2.50;;;10.60;99.90;;;;;;5044856;28;20775;-78
2023/01/03 08:51:02;;;;;;;7.43;2.73;;;10.70;99.90;;;;;;5067403;28;20532;-77
2023/01/03 08:53:29;;;;;;;7.27;2.43;;;10.70;99.90;;;;;;5085040;28;20232;-77
2023/01/03 08:55:58;;;;;;;7.53;2.97;;;10.70;99.90;;;;;;5069415;28;20186;-78
2023/01/03 08:58:24;;;;;;;6.27;3.00;;;10.80;99.90;;;;;;5044454;28;20625;-78
2023/01/03 09:00:51;;;;;;;6.53;2.90;;;10.80;99.90;;;;;;5049497;28;20617;-77
2023/01/03 09:03:18;;;;;;;10.03;3.00;;;10.90;99.90;;;;;;5053576;28;20175;-78
2023/01/03 09:05:45;;;;;;;6.40;2.83;;;11.00;99.90;;;;;;5054284;28;20186;-78
2023/01/03 09:08:11;;;;;;;6.97;3.47;;;11.10;99.90;;;;;;5078335;28;20191;-78
2023/01/03 09:10:39;;;;;;;7.80;3.33;;;11.10;99.90;;;;;;5067608;28;20202;-78
2023/01/03 09:13:05;;;;;;;7.90;3.50;;;11.10;99.90;;;;;;5050637;28;20199;-77
2023/01/03 09:15:31;;;;;;;5.27;2.70;;;11.30;99.90;;;;;;5050974;28;20193;-78
2023/01/03 09:17:58;;;;;;;9.93;3.10;;;11.50;99.90;;;;;;5048294;28;20196;-78
2023/01/03 09:20:24;;;;;;;5.07;2.73;;;11.60;99.90;;;;;;5051859;28;21095;-78
2023/01/03 09:22:50;;;;;;;8.43;3.23;;;11.60;99.90;;;;;;5056603;28;20195;-78
2023/01/03 09:25:17;;;;;;;5.13;2.80;;;11.70;99.90;;;;;;5052839;28;20183;-78
2023/01/03 09:27:47;;;;;;;6.67;2.97;;;11.70;99.90;;;;;;5079842;28;20210;-78
2023/01/03 09:30:16;;;;;;;6.47;2.73;;;11.70;99.90;;;;;;5048092;28;20187;-78
2023/01/03 09:32:43;;;;;;;4.27;2.97;;;11.70;99.90;;;;;;5058792;28;20271;-78
2023/01/03 09:35:10;;;;;;;8.20;3.00;;;11.70;99.90;;;;;;5064927;28;20278;-78
2023/01/03 09:37:37;;;;;;;5.00;2.80;;;11.80;99.90;;;;;;5045759;28;20676;-78
2023/01/03 09:40:03;;;;;;;4.70;2.70;;;11.80;99.90;;;;;;5050773;28;20235;-78
2023/01/03 09:45:24;;;;;;;5.50;3.13;;;12.00;99.90;;;;;;5066285;28;20175;-79
2023/01/03 09:47:51;;;;;;;6.20;3.43;;;12.00;99.90;;;;;;5066973;28;20617;-78
2023/01/03 09:50:23;;;;;;;7.90;3.17;;;12.10;99.90;;;;;;5083488;28;20695;-78
2023/01/03 10:05:33;;;;;;;8.10;4.53;;;12.60;99.90;;;;;;5057653;28;20199;-78
2023/01/03 10:08:02;;;;;;;8.17;4.03;;;12.70;99.90;;;;;;5081255;28;20233;-78
2023/01/03 10:10:47;;;;;;;7.00;3.93;;;12.70;99.90;;;;;;5079790;28;20195;-78
2023/01/03 10:13:44;;;;;;;9.30;4.67;;;12.70;99.90;;;;;;5061969;28;20887;-79
2023/01/03 10:16:53;;;;;;;8.70;4.40;;;12.80;99.90;;;;;;5066216;28;20627;-79
2023/01/03 10:19:37;;;;;;;7.07;4.10;;;12.80;99.90;;;;;;5056914;28;20733;-78
2023/01/03 10:22:13;;;;;;;7.50;3.43;;;12.80;99.90;;;;;;5080308;28;20188;-79
2023/01/03 10:25:10;;;;;;;8.87;3.50;;;12.80;99.90;;;;;;5056418;28;20292;-79
2023/01/03 10:28:14;;;;;;;6.90;3.80;;;12.80;99.90;;;;;;5078030;28;20585;-79
2023/01/03 10:31:24;;;;;;;7.83;3.37;;;12.90;99.90;;;;;;5080787;28;20241;-79
2023/01/03 10:33:50;;;;;;;6.60;3.60;;;13.00;99.90;;;;;;5065077;28;20195;-78
2023/01/03 10:36:20;;;;;;;8.27;3.43;;;13.00;99.90;;;;;;5066056;28;20210;-79
2023/01/03 10:38:47;;;;;;;8.37;4.03;;;13.10;99.90;;;;;;5076944;28;20704;-79
2023/01/03 10:41:31;;;;;;;9.30;3.53;;;13.20;99.90;;;;;;5058986;28;20211;-79
2023/01/03 10:44:01;;;;;;;8.47;3.97;;;13.30;99.90;;;;;;5058482;28;20221;-79
2023/01/03 10:46:28;;;;;;;7.87;4.17;;;13.40;99.90;;;;;;5062589;28;20183;-79
2023/01/03 10:49:13;;;;;;;6.37;3.70;;;13.40;99.90;;;;;;5056146;28;20183;-79
2023/01/03 10:52:09;;;;;;;7.83;4.40;;;13.40;99.90;;;;;;5052190;28;20252;-79
2023/01/03 10:55:02;;;;;;;5.40;3.50;;;13.40;99.90;;;;;;5092506;28;20264;-79
2023/01/03 10:57:55;;;;;;;8.13;3.23;;;13.70;99.90;;;;;;5058745;28;20183;-79
2023/01/03 11:00:27;;;;;;;14.43;3.77;;;13.90;99.90;;;;;;5049712;28;20219;-79
2023/01/03 11:03:01;;;;;;;8.17;3.40;;;14.00;99.90;;;;;;5054254;28;20225;-79
2023/01/03 11:05:27;;;;;;;10.27;4.30;;;14.10;99.90;;;;;;5064772;28;20265;-79
2023/01/03 11:08:04;;;;;;;10.03;4.40;;;14.20;99.90;;;;;;5070236;28;20632;-79
2023/01/03 11:10:38;;;;;;;8.90;4.33;;;14.20;99.90;;;;;;5071620;28;20210;-79
2023/01/03 11:13:35;;;;;;;7.20;4.07;;;14.30;99.90;;;;;;5048041;28;20187;-79
2023/01/03 11:16:12;;;;;;;7.77;4.00;;;14.50;99.90;;;;;;5062537;28;20202;-80
2023/01/03 11:18:42;;;;;;;8.60;3.83;;;14.60;99.90;;;;;;5063523;28;20245;-80
2023/01/03 11:21:24;;;;;;;6.63;3.83;;;14.80;99.90;;;;;;5078821;28;20826;-80
2023/01/03 11:24:20;;;;;;;7.83;3.97;;;14.80;99.90;;;;;;5073526;28;20201;-80
2023/01/03 11:27:31;;;;;;;6.73;3.77;;;15.00;99.90;;;;;;5059360;28;20191;-80
2023/01/03 11:30:12;;;;;;;7.20;3.47;;;14.90;99.90;;;;;;5055256;28;20552;-80
2023/01/03 11:33:43;;;;;;;9.70;3.70;;;15.00;99.90;;;;;;5052170;28;20190;-81
2023/01/03 11:36:42;;;;;;;8.17;3.73;;;14.90;99.90;;;;;;5055867;28;20194;-81
2023/01/03 11:39:27;;;;;;;10.53;4.90;;;14.90;99.90;;;;;;5061715;28;20233;-81
2023/01/03 11:42:18;;;;;;;6.47;3.90;;;15.10;99.90;;;;;;5078622;28;20183;-80
2023/01/03 11:45:18;;;;;;;10.10;3.93;;;15.30;99.90;;;;;;5063325;28;20183;-81
2023/01/03 11:47:56;;;;;;;8.03;3.47;;;15.50;99.90;;;;;;5047850;28;20195;-81
2023/01/03 11:50:44;;;;;;;9.97;3.90;;;15.50;99.90;;;;;;5080898;28;20368;-81
2023/01/03 11:53:42;;;;;;;8.67;3.63;;;15.60;99.90;;;;;;5062874;28;20274;-81
2023/01/03 11:56:36;;;;;;;7.03;3.67;;;15.50;99.90;;;;;;5059069;28;20244;-81
2023/01/03 11:59:39;;;;;;;5.10;3.30;;;15.50;99.90;;;;;;5060229;28;20628;-81
2023/01/03 12:03:04;;;;;;;7.47;3.67;;;15.50;99.90;;;;;;5042698;28;20202;-81
2023/01/03 12:05:44;;;;;;;7.63;4.00;;;15.60;99.90;;;;;;5049667;28;20201;-80
2023/01/03 12:09:01;;;;;;;10.73;4.37;;;15.70;99.90;;;;;;5061625;28;20256;-81
2023/01/03 12:11:41;;;;;;;8.27;3.73;;;15.80;99.90;;;;;;5045270;28;20195;-81
2023/01/03 12:14:21;;;;;;;12.30;4.10;;;15.80;99.90;;;;;;5056159;28;20225;-80
2023/01/03 12:17:12;;;;;;;8.33;3.80;;;15.80;99.90;;;;;;5059634;28;20282;-80
2023/01/03 12:19:50;;;;;;;9.93;3.50;;;15.90;99.90;;;;;;5054623;28;20195;-80
2023/01/03 12:22:38;;;;;;;7.13;3.17;;;15.80;99.90;;;;;;5044940;28;20263;-80
2023/01/03 12:25:24;;;;;;;5.70;3.20;;;15.80;99.90;;;;;;5068699;28;20179;-80
2023/01/03 12:28:09;;;;;;;6.47;3.30;;;15.80;99.90;;;;;;5071944;28;20196;-80
2023/01/03 12:31:15;;;;;;;6.63;3.00;;;15.80;99.90;;;;;;5056155;28;20274;-80
2023/01/03 12:34:00;;;;;;;4.87;3.00;;;15.80;99.90;;;;;;5052817;28;20655;-80
2023/01/03 12:37:14;;;;;;;7.20;3.70;;;15.80;99.90;;;;;;5059262;28;20232;-80
2023/01/03 12:40:41;;;;;;;8.93;3.20;;;15.80;99.90;;;;;;5063968;28;20299;-80
2023/01/03 12:43:31;;;;;;;5.80;3.20;;;15.80;99.90;;;;;;5042219;28;20192;-80
2023/01/03 12:46:17;;;;;;;5.67;3.03;;;15.80;99.90;;;;;;5049898;28;20313;-80
2023/01/03 12:49:04;;;;;;;9.63;3.07;;;15.80;99.90;;;;;;5063051;28;20203;-80
2023/01/03 12:51:31;;;;;;;8.37;3.20;;;15.80;99.90;;;;;;5045960;28;20211;-80
2023/01/03 12:54:24;;;;;;;6.47;3.00;;;15.80;99.90;;;;;;5049089;28;20197;-80
2023/01/03 12:57:07;;;;;;;6.90;3.10;;;15.80;99.90;;;;;;5051312;28;20202;-79
2023/01/03 13:00:04;;;;;;;8.33;3.23;;;15.80;99.90;;;;;;5062544;28;20213;-80
2023/01/03 13:02:56;;;;;;;9.10;3.63;;;15.70;99.90;;;;;;5048351;28;20194;-80
2023/01/03 13:05:49;;;;;;;6.77;3.53;;;15.70;99.90;;;;;;5049268;28;20214;-80
2023/01/03 13:08:21;;;;;;;7.97;3.40;;;15.60;99.90;;;;;;5073561;28;20842;-80
2023/01/03 13:10:53;;;;;;;7.97;4.10;;;15.50;99.90;;;;;;5059915;28;20187;-80
2023/01/03 13:13:21;;;;;;;8.47;4.00;;;15.40;99.90;;;;;;5074931;28;20203;-79
2023/01/03 13:15:47;;;;;;;7.93;4.00;;;15.40;99.90;;;;;;5060837;28;20191;-79
2023/01/03 13:18:23;;;;;;;9.00;4.07;;;15.40;99.90;;;;;;5062400;28;20191;-80
2023/01/03 13:20:54;;;;;;;7.73;3.80;;;15.40;99.90;;;;;;5075330;28;20210;-79
2023/01/03 13:23:35;;;;;;;7.43;4.20;;;15.40;99.90;;;;;;5060901;28;20202;-79
2023/01/03 13:26:05;;;;;;;10.17;4.27;;;15.40;99.90;;;;;;5053452;28;20198;-79
2023/01/03 13:28:39;;;;;;;5.33;3.53;;;15.30;99.90;;;;;;5075352;28;20183;-79
2023/01/03 13:31:17;;;;;;;10.67;3.50;;;15.20;99.90;;;;;;5060228;28;20269;-79
2023/01/03 13:34:12;;;;;;;7.83;3.50;;;15.30;99.90;;;;;;5062667;28;20205;-79
2023/01/03 13:37:06;;;;;;;7.07;3.50;;;15.30;99.90;;;;;;5072769;28;20968;-79
2023/01/03 13:39:44;;;;;;;7.60;3.20;;;15.50;99.90;;;;;;5072529;28;20187;-79
2023/01/03 13:42:33;;;;;;;7.67;3.43;;;15.50;99.90;;;;;;5063647;28;20189;-79
2023/01/03 13:45:14;;;;;;;7.17;3.50;;;15.40;99.90;;;;;;5067493;28;20191;-79
2023/01/03 13:47:52;;;;;;;5.03;3.03;;;15.40;99.90;;;;;;5047679;28;20274;-79
2023/01/03 13:50:37;;;;;;;11.10;3.70;;;15.60;99.90;;;;;;5060180;28;20195;-78
2023/01/03 13:53:10;;;;;;;9.10;3.60;;;15.70;99.90;;;;;;5066982;28;20234;-79
2023/01/03 13:55:49;;;;;;;7.37;3.00;;;15.60;99.90;;;;;;5019478;28;20238;-78
2023/01/03 13:58:33;;;;;;;9.73;3.33;;;15.60;99.90;;;;;;5055718;28;20267;-78
2023/01/03 14:01:17;;;;;;;5.97;2.80;;;15.50;99.90;;;;;;5042844;28;20668;-79
2023/01/03 14:03:56;;;;;;;10.03;4.10;;;15.40;99.90;;;;;;5065862;28;20187;-79
2023/01/03 14:06:52;;;;;;;8.33;3.53;;;15.30;99.90;;;;;;5063018;28;20702;-80
2023/01/03 14:10:15;;;;;;;8.00;4.20;;;15.20;99.90;;;;;;5066954;28;20623;-79
2023/01/03 14:13:20;;;;;;;11.20;3.80;;;15.10;99.90;;;;;;5066478;28;20277;-78
2023/01/03 14:16:04;;;;;;;7.30;3.43;;;14.90;99.90;;;;;;5034815;28;20290;-78
2023/01/03 14:18:33;;;;;;;6.17;3.27;;;14.80;99.90;;;;;;5068243;28;20719;-78
2023/01/03 14:21:01;;;;;;;9.53;3.43;;;14.70;99.90;;;;;;5080404;28;20933;-79
2023/01/03 14:23:28;;;;;;;6.20;3.10;;;14.60;99.90;;;;;;5062642;28;20777;-78
2023/01/03 14:26:15;;;;;;;8.97;3.17;;;14.50;99.90;;;;;;5066256;28;20191;-79
2023/01/03 14:28:50;;;;;;;7.67;3.10;;;14.50;99.90;;;;;;5063203;28;20671;-78
2023/01/03 14:31:25;;;;;;;7.10;2.90;;;14.40;99.90;;;;;;5080449;28;20721;-79
2023/01/03 14:34:04;;;;;;;6.57;2.70;;;14.40;99.90;;;;;;5065912;28;20658;-78
2023/01/03 14:36:30;;;;;;;5.27;2.60;;;14.30;99.90;;;;;;5045829;28;20248;-78
2023/01/03 14:39:00;;;;;;;6.47;2.47;;;14.20;99.90;;;;;;5065083;28;20202;-79